Time;durP1;ratioP1;P1;durP2;ratioP2;P2;SDS_P1;SDS_P2;PMS_P1;PMS_P2;Temp;Humidity;BMP_temperature;BMP_pressure;BME280_temperature;BME280_humidity;BME280_pressure;Samples;Min_cycle;Max_cycle;Signal;HPM_P1;HPM_P2
2022/10/09 00:03:47;;;;;;;7.60;2.70;;;;;;;9.65;48.58;101471.47;10071519;29;20233;-83
2022/10/09 00:09:09;;;;;;;4.60;2.90;;;;;;;9.31;49.37;101482.00;10060354;29;20286;-83
2022/10/09 00:14:32;;;;;;;8.73;2.83;;;;;;;9.62;48.44;101488.94;10077634;29;20281;-83
2022/10/09 00:19:54;;;;;;;8.67;3.20;;;;;;;10.03;47.52;101488.41;10073949;29;20219;-83
2022/10/09 00:25:16;;;;;;;4.17;2.70;;;;;;;9.44;49.08;101495.34;10046219;29;20231;-84
2022/10/09 00:30:38;;;;;;;7.17;3.17;;;;;;;8.88;50.20;101501.56;10057618;29;20234;-84
2022/10/09 00:36:05;;;;;;;6.67;2.90;;;;;;;9.50;49.04;101491.34;10059764;29;20265;-83
2022/10/09 00:41:29;;;;;;;4.43;2.90;;;;;;;9.08;49.29;101498.56;10054701;29;20241;-83
2022/10/09 00:46:51;;;;;;;8.30;3.03;;;;;;;9.37;48.58;101508.94;10064619;29;20206;-83
2022/10/09 00:52:14;;;;;;;7.80;2.87;;;;;;;9.77;47.65;101497.22;10069764;29;20237;-83
2022/10/09 00:57:36;;;;;;;7.93;3.33;;;;;;;9.37;48.54;101503.31;10066589;29;20249;-83
2022/10/09 01:02:58;;;;;;;9.77;2.67;;;;;;;9.54;48.29;101497.19;10053837;29;20297;-84
2022/10/09 01:08:28;;;;;;;4.97;2.90;;;;;;;9.90;47.76;101494.78;10055152;29;20202;-83
2022/10/09 01:13:57;;;;;;;11.50;3.60;;;;;;;9.12;49.79;101494.03;10052502;29;20507;-83
2022/10/09 01:19:49;;;;;;;10.13;2.93;;;;;;;9.10;49.93;101493.50;10077038;29;20240;-83
2022/10/09 01:25:25;;;;;;;5.47;2.90;;;;;;;9.07;49.58;101488.44;10080371;29;20237;-83
2022/10/09 01:30:48;;;;;;;5.93;3.17;;;;;;;9.46;48.88;101485.47;10070538;29;20230;-83
2022/10/09 01:36:10;;;;;;;6.17;3.00;;;;;;;9.17;49.27;101473.44;10078492;29;20623;-83
2022/10/09 01:41:33;;;;;;;7.50;2.97;;;;;;;9.34;48.91;101470.16;10058974;29;20254;-83
2022/10/09 01:46:55;;;;;;;5.80;3.30;;;;;;;9.24;49.12;101476.75;10052733;29;20246;-84
2022/10/09 01:52:17;;;;;;;6.50;2.70;;;;;;;8.69;50.85;101475.34;10065863;29;20238;-84
2022/10/09 01:57:49;;;;;;;9.13;2.43;;;;;;;9.15;49.96;101464.44;10077025;29;20703;-83
2022/10/09 02:03:14;;;;;;;6.53;2.37;;;;;;;9.31;49.13;101460.31;10059841;29;20238;-84
2022/10/09 02:08:38;;;;;;;6.73;3.40;;;;;;;9.18;50.09;101457.41;10067684;29;20256;-83
2022/10/09 02:14:00;;;;;;;7.83;2.87;;;;;;;9.05;49.67;101451.34;10082180;29;20567;-83
2022/10/09 02:19:27;;;;;;;5.07;2.50;;;;;;;9.01;50.32;101461.50;10065696;29;20305;-82
2022/10/09 02:24:50;;;;;;;7.97;2.50;;;;;;;8.38;51.74;101458.72;10056512;29;20269;-84
2022/10/09 02:30:13;;;;;;;6.03;2.37;;;;;;;8.80;50.70;101443.19;10075922;29;20229;-83
2022/10/09 02:35:36;;;;;;;6.47;2.67;;;;;;;8.54;51.70;101450.16;10075198;29;20834;-83
2022/10/09 02:40:59;;;;;;;8.47;3.53;;;;;;;8.21;52.35;101441.44;10075085;29;20210;-84
2022/10/09 02:46:22;;;;;;;2.97;2.23;;;;;;;8.26;51.78;101444.19;10074416;29;20202;-83
2022/10/09 02:51:44;;;;;;;4.97;2.67;;;;;;;7.67;53.45;101442.38;10081551;29;20231;-84
2022/10/09 02:57:06;;;;;;;5.57;3.00;;;;;;;8.15;52.58;101438.97;10061017;29;20258;-84
2022/10/09 03:02:29;;;;;;;5.67;2.43;;;;;;;7.78;53.14;101443.16;10064463;29;20201;-84
2022/10/09 03:07:51;;;;;;;4.87;3.03;;;;;;;8.14;52.20;101440.09;10067838;29;20202;-83
2022/10/09 03:13:13;;;;;;;9.27;2.93;;;;;;;7.92;52.01;101440.53;10017006;29;20486;-84
2022/10/09 03:18:36;;;;;;;3.87;2.33;;;;;;;8.23;51.24;101439.16;10011618;29;20903;-83
2022/10/09 03:23:58;;;;;;;5.90;2.50;;;;;;;7.96;52.00;101445.28;10014635;29;20233;-82
2022/10/09 03:29:20;;;;;;;6.63;3.13;;;;;;;7.99;52.10;101432.63;10014014;29;20211;-81
2022/10/09 03:34:43;;;;;;;7.43;3.07;;;;;;;8.18;51.47;101430.78;10001292;29;20231;-81
2022/10/09 03:40:05;;;;;;;4.20;2.73;;;;;;;8.65;50.16;101437.72;10014352;29;20207;-82
2022/10/09 03:45:27;;;;;;;7.77;2.50;;;;;;;8.64;50.01;101433.22;10009878;29;20204;-83
2022/10/09 03:50:49;;;;;;;6.83;3.10;;;;;;;7.86;52.00;101436.06;10016909;29;20364;-83
2022/10/09 03:56:11;;;;;;;5.73;2.60;;;;;;;8.15;50.93;101441.78;10009748;29;20259;-83
2022/10/09 04:01:35;;;;;;;6.17;2.50;;;;;;;8.67;49.50;101438.25;9994261;29;20208;-83
2022/10/09 04:06:57;;;;;;;5.63;2.80;;;;;;;8.78;48.55;101431.41;10009108;29;20231;-83
2022/10/09 04:12:19;;;;;;;5.30;2.80;;;;;;;8.28;49.96;101441.94;10037879;29;20314;-83
2022/10/09 04:17:41;;;;;;;5.67;2.53;;;;;;;8.53;49.41;101437.22;10058542;29;20223;-83
2022/10/09 04:23:03;;;;;;;7.37;2.93;;;;;;;8.61;49.11;101436.63;10038850;29;20274;-83
2022/10/09 04:28:26;;;;;;;4.77;2.80;;;;;;;8.50;49.32;101427.41;10058458;29;20224;-82
2022/10/09 04:33:48;;;;;;;7.67;2.67;;;;;;;8.19;50.03;101429.66;10043735;29;20358;-81
2022/10/09 04:39:10;;;;;;;8.30;2.80;;;;;;;8.68;49.16;101425.88;10044686;29;20314;-81
2022/10/09 04:44:33;;;;;;;5.47;2.87;;;;;;;7.96;50.36;101427.59;10058757;29;20210;-82
2022/10/09 04:49:55;;;;;;;3.93;2.40;;;;;;;8.19;49.83;101421.25;10057566;29;20251;-82
2022/10/09 04:55:31;;;;;;;5.37;2.80;;;;;;;7.81;50.85;101424.91;10055801;29;20254;-82
2022/10/09 05:00:53;;;;;;;5.77;2.60;;;;;;;8.53;48.70;101420.38;10055771;29;20218;-82
2022/10/09 05:06:16;;;;;;;6.03;2.63;;;;;;;8.38;49.11;101412.91;10056333;29;20286;-82
2022/10/09 05:11:38;;;;;;;5.57;3.07;;;;;;;8.14;49.69;101412.84;10045281;29;20226;-82
2022/10/09 05:17:04;;;;;;;7.97;2.83;;;;;;;7.96;50.26;101411.59;10042661;29;20393;-81
2022/10/09 05:22:26;;;;;;;6.70;2.43;;;;;;;8.05;49.72;101409.00;10055748;29;20492;-82
2022/10/09 05:27:48;;;;;;;10.23;2.50;;;;;;;7.99;49.63;101405.38;10042574;29;20215;-82
2022/10/09 05:33:10;;;;;;;3.20;2.03;;;;;;;8.07;49.37;101403.94;10029373;29;20218;-82
2022/10/09 05:38:33;;;;;;;4.10;2.70;;;;;;;8.07;49.65;101412.34;10054812;29;20286;-81
2022/10/09 05:43:59;;;;;;;7.63;2.80;;;;;;;7.88;50.48;101425.41;10029385;29;20222;-82
2022/10/09 05:49:22;;;;;;;3.47;2.40;;;;;;;7.82;51.23;101415.34;10049817;29;20659;-84
2022/10/09 05:54:44;;;;;;;7.27;2.63;;;;;;;8.02;49.79;101415.19;10054362;29;20210;-81
2022/10/09 06:00:07;;;;;;;5.30;3.13;;;;;;;7.87;49.94;101412.50;10041111;29;20293;-82
2022/10/09 06:05:29;;;;;;;5.97;2.60;;;;;;;8.06;49.96;101410.69;10068921;29;20267;-82
2022/10/09 06:10:51;;;;;;;6.40;2.47;;;;;;;8.16;49.09;101404.13;10060850;29;20313;-82
2022/10/09 06:16:15;;;;;;;5.13;2.63;;;;;;;8.06;49.32;101421.91;10079332;29;20257;-82
2022/10/09 06:21:38;;;;;;;10.23;2.80;;;;;;;8.05;49.51;101414.63;10055496;29;20273;-82
2022/10/09 06:27:00;;;;;;;6.93;2.60;;;;;;;8.43;48.55;101422.16;10056351;29;20238;-81
2022/10/09 06:32:22;;;;;;;5.97;2.80;;;;;;;8.44;48.41;101418.22;10060805;29;20214;-82
2022/10/09 06:37:44;;;;;;;7.27;3.00;;;;;;;8.45;48.91;101424.66;10075750;29;20257;-85
2022/10/09 06:43:06;;;;;;;5.43;2.57;;;;;;;8.49;49.03;101425.75;10072958;29;20253;-82
2022/10/09 06:48:30;;;;;;;5.33;2.90;;;;;;;8.72;48.86;101421.34;10069839;29;20552;-79
2022/10/09 06:53:53;;;;;;;6.07;3.00;;;;;;;8.73;48.96;101431.47;10063829;29;20230;-80
2022/10/09 06:59:15;;;;;;;9.63;3.33;;;;;;;8.97;48.24;101429.50;10072460;29;20643;-80
2022/10/09 07:04:37;;;;;;;5.43;2.50;;;;;;;9.21;48.17;101437.13;10063309;29;20275;-80
2022/10/09 07:09:59;;;;;;;6.47;2.80;;;;;;;9.05;48.55;101431.66;10072831;29;20261;-81
2022/10/09 07:15:21;;;;;;;4.73;2.57;;;;;;;9.67;47.35;101424.13;10067462;29;20201;-80
2022/10/09 07:20:43;;;;;;;6.57;2.47;;;;;;;9.99;46.58;101423.41;10061693;29;20205;-81
2022/10/09 07:26:12;;;;;;;7.07;2.40;;;;;;;9.76;47.68;101422.34;10093928;29;20262;-81
2022/10/09 07:31:35;;;;;;;7.07;2.53;;;;;;;9.76;47.76;101422.34;10076016;29;20242;-81
2022/10/09 07:36:57;;;;;;;3.87;2.40;;;;;;;9.51;48.33;101428.28;10069287;29;20249;-80
2022/10/09 07:42:19;;;;;;;8.07;2.67;;;;;;;10.74;45.35;101425.25;10088995;29;20241;-80
2022/10/09 07:47:41;;;;;;;7.07;2.80;;;;;;;10.73;45.60;101432.03;10075183;29;20229;-80
2022/10/09 07:53:04;;;;;;;7.03;2.53;;;;;;;10.75;46.25;101422.13;10080850;29;20206;-82
2022/10/09 07:58:28;;;;;;;7.33;2.30;;;;;;;11.28;45.61;101419.66;10087319;29;20222;-81
2022/10/09 08:03:51;;;;;;;10.00;3.37;;;;;;;11.46;45.92;101422.69;10066724;29;20242;-82
2022/10/09 08:09:13;;;;;;;7.30;2.67;;;;;;;11.38;46.76;101414.94;10065174;29;20265;-81
2022/10/09 08:14:35;;;;;;;6.37;1.87;;;;;;;11.83;45.76;101418.78;10073419;29;20586;-81
2022/10/09 08:19:58;;;;;;;8.63;2.27;;;;;;;12.58;42.83;101412.41;10072115;29;20254;-81
2022/10/09 08:25:20;;;;;;;4.17;1.73;;;;;;;12.49;43.89;101408.69;10091184;29;20702;-82
2022/10/09 08:30:42;;;;;;;8.40;1.93;;;;;;;12.14;44.76;101416.03;10090833;29;20225;-82
2022/10/09 08:36:06;;;;;;;7.40;1.80;;;;;;;12.56;44.17;101398.59;10082220;29;20293;-81
2022/10/09 08:41:31;;;;;;;3.50;1.70;;;;;;;13.44;42.61;101403.47;10072331;29;20262;-81
2022/10/09 08:47:02;;;;;;;5.13;1.60;;;;;;;13.26;42.19;101394.13;10076178;29;20206;-81
2022/10/09 08:52:34;;;;;;;7.63;1.70;;;;;;;13.82;40.31;101389.53;10078579;29;20241;-81
2022/10/09 08:58:03;;;;;;;1.87;0.90;;;;;;;13.68;40.98;101389.72;10084402;29;20318;-82
2022/10/09 09:03:59;;;;;;;4.83;1.33;;;;;;;13.42;41.56;101389.69;10073608;29;20229;-81
2022/10/09 09:09:48;;;;;;;2.10;1.05;;;;;;;12.98;41.65;101373.66;10090359;29;20293;-80
2022/10/09 09:15:14;;;;;;;4.00;0.93;;;;;;;14.24;39.65;101359.56;10084391;29;20201;-81
2022/10/09 09:21:10;;;;;;;3.67;1.27;;;;;;;14.45;39.44;101364.22;10082949;29;20591;-81
2022/10/09 09:26:34;;;;;;;6.17;1.33;;;;;;;13.35;41.33;101361.00;10053548;29;20206;-80
2022/10/09 09:32:00;;;;;;;5.23;0.90;;;;;;;14.02;40.71;101344.41;10069038;29;20203;-81
2022/10/09 09:37:27;;;;;;;4.03;1.10;;;;;;;14.20;40.85;101339.53;10087442;29;20699;-80
2022/10/09 09:42:49;;;;;;;3.80;0.80;;;;;;;13.32;40.81;101339.81;10083536;29;20194;-82
2022/10/09 09:48:34;;;;;;;4.38;0.77;;;;;;;14.30;39.60;101333.53;10100798;29;20227;-81
2022/10/09 09:54:00;;;;;;;5.40;1.00;;;;;;;14.73;40.20;101327.72;10074646;29;20257;-82
2022/10/09 09:59:37;;;;;;;2.37;1.10;;;;;;;14.87;38.89;101319.00;10069611;29;20260;-82
2022/10/09 10:05:05;;;;;;;4.30;1.75;;;;;;;15.00;38.80;101311.41;10063233;29;20277;-82
2022/10/09 10:10:27;;;;;;;4.90;1.08;;;;;;;14.40;39.05;101301.13;10065331;29;20221;-82
2022/10/09 10:15:55;;;;;;;7.80;1.30;;;;;;;14.34;38.91;101293.97;10077896;29;20233;-82
2022/10/09 10:21:18;;;;;;;3.35;1.13;;;;;;;15.60;37.45;101273.28;10079820;29;20630;-82
2022/10/09 10:26:45;;;;;;;4.53;1.10;;;;;;;14.05;39.88;101289.06;10072336;29;20253;-83
2022/10/09 10:32:43;;;;;;;6.60;1.08;;;;;;;14.98;38.01;101276.88;10083340;29;20207;-81
2022/10/09 10:38:23;;;;;;;3.40;1.13;;;;;;;15.45;36.43;101263.34;10032566;29;20238;-80
2022/10/09 10:43:50;;;;;;;4.93;0.70;;;;;;;15.16;36.72;101253.69;10099188;29;20523;-80
2022/10/09 10:49:20;;;;;;;2.63;0.50;;;;;;;14.73;37.54;101262.44;10095332;29;20483;-80
2022/10/09 10:54:57;;;;;;;4.00;0.95;;;;;;;14.41;37.59;101254.59;10078411;29;20210;-81
2022/10/09 11:00:19;;;;;;;3.65;0.45;;;;;;;14.90;36.08;101238.84;10094906;29;20234;-80
2022/10/09 11:05:46;;;;;;;4.80;0.98;;;;;;;15.51;35.88;101219.34;10068295;29;20209;-81
2022/10/09 11:11:36;;;;;;;4.22;0.85;;;;;;;15.38;35.65;101217.59;10091773;29;20230;-81
2022/10/09 11:17:05;;;;;;;3.83;0.73;;;;;;;15.06;37.04;101208.69;10087818;29;20251;-81
2022/10/09 11:22:34;;;;;;;6.55;0.82;;;;;;;15.66;35.79;101204.50;10092076;29;20580;-81
2022/10/09 11:28:02;;;;;;;2.63;0.50;;;;;;;16.44;34.46;101189.41;10106097;29;20198;-81
2022/10/09 11:33:31;;;;;;;2.35;0.80;;;;;;;16.13;34.49;101184.28;10091040;29;20214;-82
2022/10/09 11:39:04;;;;;;;5.53;0.70;;;;;;;16.46;34.45;101169.97;10091658;29;20221;-81
2022/10/09 11:44:36;;;;;;;4.43;1.00;;;;;;;17.10;34.35;101149.28;10061578;29;20568;-81
2022/10/09 11:50:31;;;;;;;3.60;1.00;;;;;;;16.11;34.01;101147.66;10091257;29;20511;-80
2022/10/09 11:56:01;;;;;;;2.03;0.67;;;;;;;15.49;33.59;101151.50;10099273;29;20664;-80
2022/10/09 12:01:29;;;;;;;2.67;0.60;;;;;;;16.35;31.46;101129.78;10086000;29;20217;-82
2022/10/09 12:06:57;;;;;;;1.87;0.40;;;;;;;16.26;31.52;101125.41;10097322;29;20235;-80
2022/10/09 12:12:21;;;;;;;2.35;0.68;;;;;;;15.63;32.46;101107.78;10075357;29;20305;-80
2022/10/09 12:17:48;;;;;;;2.73;0.50;;;;;;;16.11;30.45;101101.31;10051625;29;20577;-84
2022/10/09 12:23:10;;;;;;;1.55;0.40;;;;;;;15.61;31.39;101088.22;10057720;29;20221;-80
2022/10/09 12:28:35;;;;;;;4.78;0.50;;;;;;;15.58;31.47;101077.56;10086332;29;20242;-81
2022/10/09 12:34:27;;;;;;;1.38;0.73;;;;;;;16.75;30.16;101069.25;10072090;29;20274;-81
2022/10/09 12:39:49;;;;;;;4.43;0.70;;;;;;;16.39;30.31;101064.47;10086223;29;20257;-81
2022/10/09 12:45:19;;;;;;;5.17;0.53;;;;;;;16.85;29.60;101052.50;10095773;29;20194;-80
2022/10/09 12:50:41;;;;;;;0.90;0.45;;;;;;;17.19;28.50;101036.81;10063439;29;20450;-80
2022/10/09 12:56:10;;;;;;;3.15;0.60;;;;;;;16.90;29.76;101025.78;10081498;29;20210;-81
2022/10/09 13:01:33;;;;;;;1.52;0.40;;;;;;;16.21;29.67;101022.03;10092229;29;20380;-81
2022/10/09 13:06:55;;;;;;;1.90;0.60;;;;;;;16.94;28.50;101012.50;10091494;29;20278;-80
2022/10/09 13:12:21;;;;;;;1.02;0.40;;;;;;;16.47;29.04;101003.75;10088083;29;20302;-81
2022/10/09 13:17:43;;;;;;;3.60;0.80;;;;;;;17.91;28.65;101011.06;10072148;29;20265;-81
2022/10/09 13:23:06;;;;;;;2.97;0.65;;;;;;;17.81;29.03;100995.38;10081249;29;20205;-80
2022/10/09 13:28:28;;;;;;;3.45;0.52;;;;;;;17.24;29.71;100991.00;10077940;29;20201;-81
2022/10/09 13:33:50;;;;;;;2.88;0.68;;;;;;;17.98;28.67;100982.72;10062801;29;20286;-80
2022/10/09 13:39:13;;;;;;;3.60;0.65;;;;;;;17.62;28.36;100967.59;10078246;29;20214;-80
2022/10/09 13:44:35;;;;;;;3.05;0.77;;;;;;;17.82;28.68;100959.13;10054331;29;20526;-81
2022/10/09 13:49:57;;;;;;;2.15;0.30;;;;;;;18.04;28.09;100949.88;10053278;29;20236;-81
2022/10/09 13:55:20;;;;;;;3.50;0.85;;;;;;;16.91;28.67;100948.56;10066726;29;20245;-81
2022/10/09 14:00:43;;;;;;;1.27;0.80;;;;;;;17.16;29.78;100954.97;10054014;29;20318;-81
2022/10/09 14:06:06;;;;;;;3.40;0.50;;;;;;;17.52;28.92;100931.06;10041221;29;20218;-82
2022/10/09 14:11:28;;;;;;;1.73;0.50;;;;;;;16.66;30.28;100929.94;10054007;29;20277;-82
2022/10/09 14:16:50;;;;;;;1.95;0.47;;;;;;;16.82;30.69;100922.25;10026297;29;20217;-81
2022/10/09 14:22:12;;;;;;;2.25;0.50;;;;;;;16.71;30.07;100915.44;10088054;29;20261;-82
2022/10/09 14:27:34;;;;;;;2.67;0.47;;;;;;;17.15;29.42;100912.59;10053631;29;20270;-81
2022/10/09 14:32:41;;;;;;;2.30;0.50;;;;;;;16.83;30.14;100901.13;10047119;29;20639;-81
2022/10/09 14:38:03;;;;;;;0.95;0.30;;;;;;;16.74;29.09;100888.25;10062451;29;20560;-84
2022/10/09 14:43:25;;;;;;;1.58;0.40;;;;;;;17.65;27.68;100880.50;10054539;29;20218;-81
2022/10/09 14:48:48;;;;;;;1.80;0.50;;;;;;;17.43;27.75;100867.75;10075094;29;20254;-81
2022/10/09 14:54:10;;;;;;;4.77;0.77;;;;;;;17.63;28.19;100852.38;10074789;29;20304;-81
2022/10/09 14:59:32;;;;;;;2.75;0.60;;;;;;;16.60;29.02;100856.56;10080579;29;20257;-81
2022/10/09 15:04:55;;;;;;;0.95;0.57;;;;;;;16.97;28.26;100843.78;10066952;29;20237;-80
2022/10/09 15:10:17;;;;;;;3.93;0.30;;;;;;;17.80;27.44;100834.03;10082206;29;20289;-82
2022/10/09 15:15:39;;;;;;;3.08;0.73;;;;;;;17.12;28.91;100844.97;10072200;29;20238;-81
2022/10/09 15:21:01;;;;;;;2.47;0.63;;;;;;;16.84;28.88;100828.75;10081839;29;20762;-82
2022/10/09 15:26:24;;;;;;;3.22;0.50;;;;;;;16.84;28.69;100825.91;10058178;29;20290;-81
2022/10/09 15:31:48;;;;;;;0.68;0.32;;;;;;;16.88;28.86;100818.31;10072927;29;20237;-81
2022/10/09 15:37:10;;;;;;;1.67;0.82;;;;;;;16.92;28.91;100807.84;10064989;29;21012;-80
2022/10/09 15:42:35;;;;;;;3.90;0.80;;;;;;;16.21;29.62;100808.72;10075237;29;20317;-81
2022/10/09 15:47:57;;;;;;;2.78;0.40;;;;;;;15.80;29.40;100801.41;10078872;29;20233;-81
2022/10/09 15:53:22;;;;;;;1.47;0.50;;;;;;;16.01;28.87;100794.72;10095798;29;20202;-81
2022/10/09 15:58:44;;;;;;;1.35;0.57;;;;;;;16.46;28.06;100795.22;10083119;29;20245;-81
2022/10/09 16:04:06;;;;;;;2.87;0.63;;;;;;;16.49;27.94;100785.97;10059742;29;20266;-80
2022/10/09 16:09:33;;;;;;;3.17;1.80;;;;;;;16.26;28.83;100781.25;10069776;29;20249;-81
2022/10/09 16:14:55;;;;;;;2.33;1.23;;;;;;;15.94;28.78;100780.28;10053345;29;20233;-81
2022/10/09 16:20:17;;;;;;;3.63;1.20;;;;;;;16.06;29.14;100785.91;10068264;29;20316;-82
2022/10/09 16:25:40;;;;;;;1.90;0.70;;;;;;;16.39;29.32;100771.44;10054850;29;20631;-81
2022/10/09 16:31:02;;;;;;;1.65;0.60;;;;;;;15.77;30.91;100778.56;10074214;29;20230;-81
2022/10/09 16:36:24;;;;;;;3.17;0.83;;;;;;;15.77;29.72;100767.19;10070223;29;20233;-82
2022/10/09 16:41:46;;;;;;;1.63;0.70;;;;;;;16.15;30.34;100761.81;10056732;29;20257;-82
2022/10/09 16:47:11;;;;;;;4.13;0.87;;;;;;;16.06;30.65;100769.69;10062995;29;20285;-82
2022/10/09 16:52:34;;;;;;;1.52;0.70;;;;;;;15.74;31.09;100759.41;10074807;29;20272;-82
2022/10/09 16:57:56;;;;;;;3.23;1.37;;;;;;;15.31;33.23;100760.06;10078763;29;20230;-81
2022/10/09 17:03:18;;;;;;;1.35;0.90;;;;;;;15.23;33.18;100763.88;10068369;29;20286;-82
2022/10/09 17:08:40;;;;;;;3.75;0.70;;;;;;;14.86;33.62;100760.22;10073314;29;20282;-82
2022/10/09 17:14:03;;;;;;;1.42;0.70;;;;;;;14.43;34.63;100753.06;10094931;29;20618;-83
2022/10/09 17:19:25;;;;;;;1.80;0.90;;;;;;;14.90;33.38;100744.13;10086941;29;20314;-82
2022/10/09 17:24:47;;;;;;;3.03;1.08;;;;;;;15.10;33.62;100740.34;10054399;29;20303;-81
2022/10/09 17:30:10;;;;;;;3.58;2.53;;;;;;;13.97;35.97;100740.84;10073196;29;20233;-82
2022/10/09 17:35:32;;;;;;;5.15;2.33;;;;;;;14.25;34.42;100735.41;10047232;29;20237;-82
2022/10/09 17:40:54;;;;;;;6.87;2.73;;;;;;;14.25;34.90;100738.25;10061567;29;20261;-81
2022/10/09 17:46:17;;;;;;;2.17;1.98;;;;;;;14.29;35.33;100746.91;10069410;29;20273;-81
2022/10/09 17:51:39;;;;;;;3.73;2.23;;;;;;;13.82;35.94;100750.00;10056260;29;20273;-81
2022/10/09 17:57:05;;;;;;;5.45;2.35;;;;;;;13.85;36.35;100743.66;10055849;29;20242;-80
2022/10/09 18:02:27;;;;;;;6.13;2.83;;;;;;;13.16;37.64;100747.00;10051470;29;20326;-81
2022/10/09 18:07:49;;;;;;;3.77;2.73;;;;;;;13.09;37.68;100743.06;10054727;29;20241;-80
2022/10/09 18:13:11;;;;;;;7.40;2.25;;;;;;;13.87;36.34;100735.63;10066426;29;20269;-80
2022/10/09 18:18:33;;;;;;;3.40;2.03;;;;;;;13.20;37.61;100733.88;10068314;29;20305;-80
2022/10/09 18:23:55;;;;;;;2.13;1.90;;;;;;;13.30;37.75;100732.63;10051182;29;20267;-80
2022/10/09 18:29:18;;;;;;;3.80;1.80;;;;;;;13.78;36.60;100725.56;10054379;29;20238;-80
2022/10/09 18:34:40;;;;;;;4.60;2.13;;;;;;;12.57;39.46;100729.22;10057688;29;20297;-80
2022/10/09 18:40:02;;;;;;;3.87;1.80;;;;;;;13.21;38.35;100729.88;10070799;29;20642;-81
2022/10/09 18:45:24;;;;;;;4.97;2.50;;;;;;;13.36;37.86;100714.28;10082813;29;20285;-81
2022/10/09 18:50:47;;;;;;;5.25;2.10;;;;;;;13.29;37.86;100706.31;10060287;29;20287;-81
2022/10/09 18:56:10;;;;;;;4.17;1.73;;;;;;;13.55;37.87;100710.97;10066425;29;20249;-81
2022/10/09 19:01:32;;;;;;;3.70;1.93;;;;;;;13.11;39.15;100716.09;10069579;29;20260;-81
2022/10/09 19:06:54;;;;;;;3.60;2.07;;;;;;;13.29;38.99;100714.00;10075646;29;20238;-81
2022/10/09 19:12:17;;;;;;;3.90;2.20;;;;;;;13.12;39.81;100712.09;10054953;29;20258;-81
2022/10/09 19:17:40;;;;;;;6.60;2.43;;;;;;;12.74;40.69;100702.84;10065089;29;20246;-81
2022/10/09 19:23:02;;;;;;;4.97;3.87;;;;;;;12.05;42.65;100703.94;10084942;29;20290;-81
2022/10/09 19:28:26;;;;;;;7.07;3.13;;;;;;;11.33;44.21;100701.88;10062368;29;20209;-81
2022/10/09 19:33:48;;;;;;;7.67;3.10;;;;;;;11.29;44.23;100692.41;10056226;29;20395;-81
2022/10/09 19:39:10;;;;;;;8.07;3.50;;;;;;;11.11;45.15;100688.72;10079171;29;20249;-81
2022/10/09 19:44:33;;;;;;;4.30;3.30;;;;;;;11.10;45.29;100698.34;10059649;29;20242;-81
2022/10/09 19:49:55;;;;;;;5.37;3.67;;;;;;;11.33;44.73;100695.38;10082827;29;20266;-80
2022/10/09 19:55:17;;;;;;;5.00;3.70;;;;;;;10.74;46.10;100686.50;10074029;29;20233;-82
2022/10/09 20:00:41;;;;;;;8.80;6.03;;;;;;;10.86;45.41;100681.06;10040499;29;20258;-81
2022/10/09 20:06:04;;;;;;;15.17;8.87;;;;;;;11.32;44.38;100676.78;10075229;29;20306;-81
2022/10/09 20:11:26;;;;;;;14.07;8.63;;;;;;;10.94;45.34;100688.72;10061856;29;20261;-81
2022/10/09 20:16:48;;;;;;;7.87;6.37;;;;;;;10.89;45.73;100686.06;10088927;29;20637;-81
2022/10/09 20:22:10;;;;;;;12.77;7.17;;;;;;;10.66;45.87;100678.88;10062974;29;20325;-81
2022/10/09 20:27:32;;;;;;;10.37;6.43;;;;;;;10.81;46.19;100675.59;10080586;29;20237;-80
2022/10/09 20:32:55;;;;;;;10.30;6.07;;;;;;;10.56;46.44;100674.34;10083433;29;20259;-81
2022/10/09 20:38:17;;;;;;;10.67;5.33;;;;;;;10.40;46.59;100668.34;10058587;29;20297;-81
2022/10/09 20:43:39;;;;;;;6.80;3.83;;;;;;;10.64;46.17;100665.09;10072240;29;20270;-81
2022/10/09 20:49:03;;;;;;;7.13;4.17;;;;;;;10.31;46.87;100656.19;10074123;29;20544;-81
2022/10/09 20:54:26;;;;;;;5.30;4.00;;;;;;;10.43;46.76;100653.59;10063782;29;20241;-81
2022/10/09 20:59:48;;;;;;;5.27;3.90;;;;;;;10.36;46.50;100653.22;10070352;29;20257;-81
2022/10/09 21:05:10;;;;;;;7.37;3.50;;;;;;;10.51;46.30;100644.31;10063345;29;20233;-81
2022/10/09 21:10:32;;;;;;;6.60;3.53;;;;;;;9.67;48.38;100646.44;10063677;29;21125;-81
2022/10/09 21:15:54;;;;;;;5.73;3.83;;;;;;;9.90;47.54;100638.78;10062851;29;20262;-81
2022/10/09 21:21:16;;;;;;;6.43;3.37;;;;;;;9.68;48.59;100637.66;10068367;29;20261;-81
2022/10/09 21:26:39;;;;;;;8.40;3.60;;;;;;;9.75;48.22;100638.06;10070468;29;20224;-82
2022/10/09 21:32:01;;;;;;;6.03;4.00;;;;;;;9.83;47.98;100628.81;10057860;29;20237;-81
2022/10/09 21:37:23;;;;;;;9.30;4.47;;;;;;;10.09;47.46;100630.91;10070645;29;20237;-81
2022/10/09 21:42:45;;;;;;;7.17;4.43;;;;;;;10.27;46.75;100623.38;10080603;29;20830;-81
2022/10/09 21:48:13;;;;;;;6.97;4.10;;;;;;;9.70;48.27;100620.47;10069145;29;20765;-81
2022/10/09 21:53:35;;;;;;;6.20;4.20;;;;;;;9.93;47.58;100615.59;10059717;29;20691;-81
2022/10/09 21:58:57;;;;;;;9.40;4.23;;;;;;;9.75;47.62;100615.53;10079960;29;20234;-81
2022/10/09 22:04:19;;;;;;;5.43;4.40;;;;;;;10.05;46.86;100607.38;10046201;29;20640;-81
2022/10/09 22:09:41;;;;;;;6.50;3.97;;;;;;;9.64;47.92;100591.66;10051830;29;20765;-81
2022/10/09 22:15:04;;;;;;;7.47;5.00;;;;;;;9.27;48.23;100586.41;10073627;29;20273;-82
2022/10/09 22:20:26;;;;;;;9.47;4.03;;;;;;;8.95;50.47;100582.72;10066858;29;20249;-82
2022/10/09 22:26:00;;;;;;;5.40;4.20;;;;;;;9.50;48.17;100568.38;10062814;29;20247;-81
2022/10/09 22:31:25;;;;;;;7.70;4.80;;;;;;;9.30;48.39;100574.50;10062297;29;20262;-81
2022/10/09 22:36:47;;;;;;;6.37;4.87;;;;;;;10.01;46.85;100564.13;10071146;29;20237;-81
2022/10/09 22:42:09;;;;;;;6.77;4.60;;;;;;;9.92;47.23;100566.06;10059069;29;20580;-82
2022/10/09 22:47:31;;;;;;;6.73;4.57;;;;;;;9.76;47.00;100560.91;10054833;29;20221;-81
2022/10/09 22:52:53;;;;;;;6.40;4.40;;;;;;;9.88;46.87;100559.47;10052835;29;20239;-82
2022/10/09 22:58:16;;;;;;;5.70;4.40;;;;;;;9.81;47.02;100546.66;10064900;29;20258;-82
2022/10/09 23:03:38;;;;;;;7.33;4.47;;;;;;;9.39;49.13;100544.47;10068968;29;20284;-82
2022/10/09 23:09:03;;;;;;;6.73;3.90;;;;;;;8.81;48.98;100542.59;10072408;29;20272;-83
2022/10/09 23:14:25;;;;;;;4.70;3.33;;;;;;;9.59;47.42;100538.28;10048647;29;20239;-83
2022/10/09 23:19:47;;;;;;;6.07;3.47;;;;;;;9.24;47.69;100528.84;10057319;29;20674;-83
2022/10/09 23:25:09;;;;;;;4.57;3.50;;;;;;;8.65;48.87;100524.44;10049723;29;20221;-82
2022/10/09 23:30:31;;;;;;;4.63;3.80;;;;;;;9.07;48.38;100515.50;10063684;29;20585;-82
2022/10/09 23:35:54;;;;;;;5.87;3.40;;;;;;;9.09;48.10;100513.19;10082499;29;20230;-82
2022/10/09 23:41:18;;;;;;;6.53;3.40;;;;;;;8.98;48.72;100506.19;10076044;29;20579;-82
2022/10/09 23:46:41;;;;;;;7.97;3.93;;;;;;;9.42;47.53;100507.22;10082138;29;20281;-82
2022/10/09 23:52:03;;;;;;;3.23;2.87;;;;;;;9.27;48.01;100502.03;10077392;29;20270;-83
2022/10/09 23:57:25;;;;;;;5.10;2.60;;;;;;;9.71;46.35;100504.75;10070936;29;20234;-82
